This is the latest recevied weather packets stored in our database for station/object EA4CZ-13. If no packets are shown the sender has not sent any weather packets the latest 1 day(s).
| Time | Temp. | Humidity | Pressure | Rain* | Wind** | Luminosity | Snow |
|---|---|---|---|---|---|---|---|
| 1778428875 | 15° C | 66% | 1009.8 hPa | 0 mm | - | 253 W/m² | - |
| 1778428275 | 15° C | 66% | 1009.8 hPa | 0 mm | - | 362 W/m² | - |
| 1778427678 | 15° C | 67% | 1009.8 hPa | 0 mm | - | 184 W/m² | - |
| 1778427375 | 15° C | 67% | 1009.5 hPa | 0 mm | - | 279 W/m² | - |
| 1778424075 | 15° C | 71% | 1010.2 hPa | 0 mm | - | 619 W/m² | - |
| 1778421374 | 13.89° C | 77% | 1010.5 hPa | 0 mm | - | 929 W/m² | - |
| 1778419574 | 13.33° C | 83% | 1010.5 hPa | 0 mm | - | 410 W/m² | - |
| 1778419274 | 12.78° C | 84% | 1010.2 hPa | 0 mm | - | 337 W/m² | - |
| 1778418974 | 12.78° C | 85% | 1010.2 hPa | 0 mm | - | 425 W/m² | - |
| 1778418374 | 12.22° C | 87% | 1010.2 hPa | 0 mm | - | 199 W/m² | - |
| 1778417774 | 12.22° C | 90% | 1010.2 hPa | 0 mm | - | 194 W/m² | - |
| 1778417474 | 11.67° C | 92% | 1010.2 hPa | 0 mm | - | 360 W/m² | - |
| 1778417174 | 11.67° C | 93% | 1010.2 hPa | 0 mm | - | 397 W/m² | - |
| 1778416574 | 11.67° C | 93% | 1010.5 hPa | 0 mm | - | 130 W/m² | - |
| 1778416274 | 11.67° C | 91% | 1010.2 hPa | 0 mm | - | 160 W/m² | - |
| 1778415374 | 11.67° C | 88% | 1010.2 hPa | 0 mm | - | 128 W/m² | - |
| 1778413574 | 13.33° C | 83% | 1010.2 hPa | 0 mm | - | 498 W/m² | - |
| 1778411178 | 11.67° C | 97% | 1010.5 hPa | 0 mm | - | 368 W/m² | - |
| 1778409673 | 11.11° C | 98% | 1010.5 hPa | 0 mm | - | 150 W/m² | - |
| 1778409373 | 11.11° C | 98% | 1010.5 hPa | 0 mm | - | 179 W/m² | - |
| 1778409073 | 11.67° C | 98% | 1010.5 hPa | 0 mm | - | 366 W/m² | - |
| 1778408473 | 11.11° C | 99% | 1010.5 hPa | 0 mm | - | 370 W/m² | - |
| 1778408173 | 11.11° C | 99% | 1010.5 hPa | 0 mm | - | 730 W/m² | - |
| 1778407573 | 10.56° C | 98% | 1010.5 hPa | 0 mm | - | 274 W/m² | - |
| 1778407273 | 10.56° C | 98% | 1010.5 hPa | 0 mm | - | 114 W/m² | - |
* Rain latest hour (hover to see other rain measurements)
** Current wind speed in m/s (hover to see current wind gust speed)